Time;durP1;ratioP1;P1;durP2;ratioP2;P2;SDS_P1;SDS_P2;PMS_P1;PMS_P2;Temp;Humidity;BMP_temperature;BMP_pressure;BME280_temperature;BME280_humidity;BME280_pressure;Samples;Min_cycle;Max_cycle;Signal;HPM_P1;HPM_P2
2023/03/29 00:01:41;;;;;;;2.90;2.70;;;7.70;31.20;;;;;;10376933;28;20222;-72
2023/03/29 00:06:47;;;;;;;4.67;3.27;;;7.60;31.20;;;;;;10371194;28;20905;-72
2023/03/29 00:11:50;;;;;;;3.13;2.87;;;7.60;31.40;;;;;;10380227;28;20229;-72
2023/03/29 00:16:53;;;;;;;3.43;3.13;;;7.60;31.60;;;;;;10379018;28;20225;-71
2023/03/29 00:21:58;;;;;;;3.43;3.00;;;7.60;31.50;;;;;;10377250;28;20460;-72
2023/03/29 00:27:01;;;;;;;4.10;3.30;;;7.60;31.60;;;;;;10369712;28;20234;-72
2023/03/29 00:32:05;;;;;;;3.17;2.97;;;7.60;31.80;;;;;;10377207;28;20217;-72
2023/03/29 00:37:11;;;;;;;3.57;3.27;;;7.70;31.90;;;;;;10383129;28;20324;-72
2023/03/29 00:42:16;;;;;;;3.60;2.87;;;7.70;31.80;;;;;;10378037;28;20301;-72
2023/03/29 00:47:24;;;;;;;3.33;2.97;;;7.80;31.80;;;;;;10377728;28;20769;-72
2023/03/29 00:52:32;;;;;;;3.90;3.13;;;7.90;31.70;;;;;;10376849;28;20340;-71
2023/03/29 00:57:42;;;;;;;3.30;3.00;;;7.90;31.70;;;;;;10382583;28;20780;-71
2023/03/29 01:02:52;;;;;;;3.73;3.03;;;8.00;32.20;;;;;;10384918;28;20230;-71
2023/03/29 01:08:01;;;;;;;3.93;3.53;;;8.00;32.40;;;;;;10379130;28;20234;-71
2023/03/29 01:13:08;;;;;;;3.30;3.00;;;8.00;32.70;;;;;;10382693;28;20246;-72
2023/03/29 01:18:11;;;;;;;3.23;2.80;;;7.90;33.00;;;;;;10382166;28;20230;-72
2023/03/29 01:23:32;;;;;;;2.83;2.60;;;7.90;33.10;;;;;;10381380;28;20233;-72
2023/03/29 01:28:41;;;;;;;2.47;2.27;;;7.80;34.20;;;;;;10384990;28;20222;-72
2023/03/29 01:33:49;;;;;;;3.23;2.93;;;7.70;34.20;;;;;;10386522;28;20226;-74
2023/03/29 01:38:56;;;;;;;3.10;2.87;;;7.70;34.20;;;;;;10383084;28;20241;-75
2023/03/29 01:44:06;;;;;;;3.57;3.07;;;7.70;34.30;;;;;;10381365;28;20229;-75
2023/03/29 01:49:17;;;;;;;3.40;3.10;;;7.70;34.70;;;;;;10389133;28;20594;-75
2023/03/29 01:54:24;;;;;;;3.33;3.03;;;7.70;34.80;;;;;;10378875;28;20232;-75
2023/03/29 01:59:31;;;;;;;2.70;2.50;;;7.60;34.50;;;;;;10382616;28;20229;-74
2023/03/29 02:04:39;;;;;;;3.13;2.10;;;7.60;35.00;;;;;;10380564;28;20235;-74
2023/03/29 02:09:43;;;;;;;2.37;2.20;;;7.60;35.40;;;;;;10381735;28;20237;-74
2023/03/29 02:14:48;;;;;;;1.80;1.70;;;7.60;35.10;;;;;;10374137;28;20237;-74
2023/03/29 02:19:58;;;;;;;1.70;1.60;;;7.60;35.50;;;;;;10382036;28;20226;-74
2023/03/29 02:25:03;;;;;;;1.63;1.53;;;7.60;36.20;;;;;;10380908;28;20222;-74
2023/03/29 02:30:10;;;;;;;1.70;1.60;;;7.70;35.60;;;;;;10382716;28;20221;-74
2023/03/29 02:35:21;;;;;;;1.70;1.60;;;7.70;36.30;;;;;;10376937;28;20236;-75
2023/03/29 02:40:25;;;;;;;1.40;1.30;;;7.80;36.30;;;;;;10379621;28;20230;-73
2023/03/29 02:45:30;;;;;;;1.33;1.23;;;7.80;36.00;;;;;;10383550;28;20236;-73
2023/03/29 02:50:37;;;;;;;1.60;1.50;;;7.80;36.20;;;;;;10385341;28;20230;-73
2023/03/29 02:55:40;;;;;;;1.50;1.40;;;7.90;36.40;;;;;;10387554;28;20252;-74
2023/03/29 03:00:48;;;;;;;1.40;1.30;;;8.00;35.90;;;;;;10383723;28;20287;-73
2023/03/29 03:05:52;;;;;;;1.23;1.20;;;8.00;36.50;;;;;;10378199;28;20321;-71
2023/03/29 03:10:56;;;;;;;1.73;1.63;;;8.00;36.10;;;;;;10391969;28;20233;-73
2023/03/29 03:16:02;;;;;;;1.67;1.57;;;8.10;36.00;;;;;;10381080;28;20695;-73
2023/03/29 03:21:05;;;;;;;1.77;1.67;;;8.10;36.20;;;;;;10382657;28;20238;-72
2023/03/29 03:26:09;;;;;;;2.30;2.10;;;8.20;35.90;;;;;;10375491;28;20234;-72
2023/03/29 03:31:14;;;;;;;1.80;1.60;;;8.20;35.90;;;;;;10380896;28;20308;-72
2023/03/29 03:36:17;;;;;;;1.70;1.60;;;8.10;36.40;;;;;;10377602;28;20591;-72
2023/03/29 03:41:21;;;;;;;1.93;1.47;;;8.00;36.10;;;;;;10380072;28;20225;-72
2023/03/29 03:46:26;;;;;;;2.10;2.00;;;8.00;36.30;;;;;;10380936;28;20774;-73
2023/03/29 03:51:31;;;;;;;2.67;1.80;;;8.00;36.70;;;;;;10384610;28;20230;-73
2023/03/29 03:56:34;;;;;;;1.80;1.70;;;8.00;36.40;;;;;;10393772;28;20232;-73
2023/03/29 04:01:42;;;;;;;2.00;1.90;;;8.00;37.10;;;;;;10386160;28;20236;-73
2023/03/29 04:06:45;;;;;;;2.50;2.30;;;8.00;36.90;;;;;;10383839;28;20740;-73
2023/03/29 04:11:48;;;;;;;2.70;2.50;;;8.00;36.70;;;;;;10386724;28;20584;-73
2023/03/29 04:16:53;;;;;;;3.10;2.80;;;7.90;36.60;;;;;;10387132;28;20222;-73
2023/03/29 04:21:56;;;;;;;3.23;2.37;;;7.90;37.10;;;;;;10376926;28;20233;-73
2023/03/29 04:26:59;;;;;;;2.53;2.20;;;7.90;36.70;;;;;;10380289;28;20226;-73
2023/03/29 04:32:04;;;;;;;2.03;1.93;;;8.00;36.80;;;;;;10379509;28;20222;-74
2023/03/29 04:37:09;;;;;;;2.20;2.03;;;8.00;37.20;;;;;;10386203;28;20237;-74
2023/03/29 04:42:12;;;;;;;2.30;2.20;;;8.00;36.80;;;;;;10377247;28;20230;-73
2023/03/29 04:47:17;;;;;;;5.00;4.43;;;8.00;36.90;;;;;;10378863;28;20248;-74
2023/03/29 04:52:22;;;;;;;3.23;2.93;;;8.10;37.30;;;;;;10379886;28;20272;-72
2023/03/29 04:57:27;;;;;;;2.40;2.27;;;8.10;36.90;;;;;;10379609;28;20787;-72
2023/03/29 05:02:31;;;;;;;2.77;2.20;;;8.10;36.90;;;;;;10380130;28;20481;-72
2023/03/29 05:07:35;;;;;;;2.53;2.10;;;8.10;37.40;;;;;;10380560;28;20741;-72
2023/03/29 05:12:39;;;;;;;3.10;2.80;;;8.10;37.30;;;;;;10384128;28;20226;-72
2023/03/29 05:17:43;;;;;;;2.83;2.57;;;8.00;37.20;;;;;;10379199;28;20231;-71
2023/03/29 05:22:47;;;;;;;2.30;2.10;;;8.10;37.80;;;;;;10376995;28;20233;-71
2023/03/29 05:27:50;;;;;;;3.30;1.90;;;8.10;37.40;;;;;;10361733;28;20249;-71
2023/03/29 05:32:55;;;;;;;2.87;1.87;;;8.10;37.50;;;;;;10364773;28;20595;-71
2023/03/29 05:37:59;;;;;;;1.80;1.70;;;8.20;37.90;;;;;;10367051;28;20237;-71
2023/03/29 05:43:02;;;;;;;1.70;1.60;;;8.20;37.50;;;;;;10375328;28;20732;-72
2023/03/29 05:48:07;;;;;;;2.30;1.70;;;8.20;37.40;;;;;;10382344;28;20604;-71
2023/03/29 05:53:10;;;;;;;1.60;1.43;;;8.30;37.80;;;;;;10376782;28;20230;-71
2023/03/29 05:58:14;;;;;;;1.73;1.63;;;8.40;37.50;;;;;;10376316;28;20229;-71
2023/03/29 06:03:22;;;;;;;2.10;1.70;;;8.40;37.60;;;;;;10370220;28;20603;-71
2023/03/29 06:08:26;;;;;;;1.70;1.60;;;8.40;37.90;;;;;;10367715;28;20612;-71
2023/03/29 06:13:30;;;;;;;1.80;1.70;;;8.50;37.70;;;;;;10372627;28;20260;-71
2023/03/29 06:18:36;;;;;;;1.97;1.80;;;8.50;37.70;;;;;;10371598;28;20229;-71
2023/03/29 06:23:40;;;;;;;1.60;1.50;;;8.60;38.10;;;;;;10372973;28;20233;-71
2023/03/29 06:28:43;;;;;;;1.33;1.30;;;8.60;37.70;;;;;;10372363;28;20787;-71
2023/03/29 06:33:48;;;;;;;1.60;1.50;;;8.70;37.70;;;;;;10368366;28;20234;-71
2023/03/29 06:38:51;;;;;;;2.23;2.03;;;8.80;38.20;;;;;;10374456;28;20228;-71
2023/03/29 06:43:55;;;;;;;2.27;2.17;;;8.80;37.80;;;;;;10377884;28;20671;-71
2023/03/29 06:49:00;;;;;;;1.87;1.77;;;8.90;37.80;;;;;;10379784;28;20229;-71
2023/03/29 06:54:04;;;;;;;1.90;1.80;;;8.90;38.00;;;;;;10370922;28;20229;-72
2023/03/29 06:59:07;;;;;;;2.47;1.90;;;9.00;37.90;;;;;;10371206;28;20246;-73
2023/03/29 07:04:11;;;;;;;2.30;1.80;;;9.00;38.00;;;;;;10375683;28;20241;-74
2023/03/29 07:09:15;;;;;;;1.90;1.80;;;9.00;38.30;;;;;;10374568;28;20229;-73
2023/03/29 07:14:21;;;;;;;4.97;1.70;;;9.10;38.10;;;;;;10379250;28;20229;-75
2023/03/29 07:19:28;;;;;;;2.80;1.90;;;9.10;38.20;;;;;;10378112;28;20313;-74
2023/03/29 07:24:32;;;;;;;1.90;1.80;;;9.20;38.60;;;;;;10384360;28;20262;-73
2023/03/29 07:29:38;;;;;;;1.87;1.77;;;9.30;38.40;;;;;;10384502;28;20229;-73
2023/03/29 07:34:47;;;;;;;2.80;1.80;;;9.30;38.90;;;;;;10383215;28;20252;-73
2023/03/29 07:39:51;;;;;;;2.13;1.93;;;9.40;38.80;;;;;;10385187;28;20836;-74
2023/03/29 07:44:54;;;;;;;2.20;2.00;;;9.50;38.70;;;;;;10382320;28;20225;-73
2023/03/29 07:49:59;;;;;;;7.17;2.10;;;9.60;38.60;;;;;;10379590;28;20233;-74
2023/03/29 07:55:02;;;;;;;2.37;2.00;;;9.60;39.00;;;;;;10381064;28;20265;-74
2023/03/29 08:00:14;;;;;;;4.77;2.10;;;9.70;38.80;;;;;;10374584;28;20246;-72
2023/03/29 08:05:21;;;;;;;6.27;5.67;;;9.80;39.10;;;;;;10377104;28;20222;-72
2023/03/29 08:10:43;;;;;;;3.53;3.23;;;9.90;39.30;;;;;;10373424;28;20261;-71
2023/03/29 08:15:47;;;;;;;4.63;3.33;;;10.00;38.20;;;;;;10376065;28;20309;-72
2023/03/29 08:20:52;;;;;;;5.50;2.90;;;10.20;38.50;;;;;;10381411;28;20238;-71
2023/03/29 08:25:55;;;;;;;6.07;2.80;;;10.30;38.70;;;;;;10382371;28;20230;-71
2023/03/29 08:30:58;;;;;;;3.57;2.43;;;10.40;38.40;;;;;;10380205;28;20230;-70
2023/03/29 08:36:04;;;;;;;2.57;2.37;;;10.50;38.40;;;;;;10377801;28;20713;-71
2023/03/29 08:41:23;;;;;;;3.67;2.30;;;10.70;38.60;;;;;;10376944;28;20238;-68
2023/03/29 08:46:35;;;;;;;2.47;2.23;;;10.80;38.90;;;;;;10380500;28;20290;-70
2023/03/29 08:51:45;;;;;;;2.20;2.00;;;11.00;38.70;;;;;;10368334;28;20228;-75
2023/03/29 08:56:50;;;;;;;3.17;2.20;;;11.20;38.70;;;;;;10366914;28;20243;-73
2023/03/29 09:01:56;;;;;;;2.73;1.90;;;11.30;38.50;;;;;;10379975;28;20236;-73
2023/03/29 09:07:02;;;;;;;5.50;1.70;;;11.50;38.60;;;;;;10370936;28;20273;-74
2023/03/29 09:12:18;;;;;;;1.87;1.77;;;11.70;38.90;;;;;;10374571;28;20758;-74
2023/03/29 09:17:32;;;;;;;1.73;1.53;;;11.90;38.20;;;;;;10384484;28;20721;-73
2023/03/29 09:22:43;;;;;;;2.03;1.60;;;12.10;38.00;;;;;;10382011;28;20291;-74
2023/03/29 09:27:53;;;;;;;2.03;1.50;;;12.30;37.70;;;;;;10383158;28;20233;-73
2023/03/29 09:33:00;;;;;;;2.60;1.53;;;12.40;37.90;;;;;;10379857;28;20229;-73
2023/03/29 09:38:09;;;;;;;1.87;1.60;;;12.60;36.90;;;;;;10380438;28;20231;-72
2023/03/29 09:43:17;;;;;;;2.90;1.50;;;12.80;36.30;;;;;;10378970;28;20269;-74
2023/03/29 09:48:21;;;;;;;1.90;1.60;;;13.00;36.50;;;;;;10383948;28;20230;-74
2023/03/29 09:53:26;;;;;;;1.20;1.10;;;13.10;36.50;;;;;;10380356;28;20638;-73
2023/03/29 09:58:31;;;;;;;1.97;1.87;;;13.30;35.30;;;;;;10381117;28;20234;-73
2023/03/29 10:03:36;;;;;;;1.87;1.67;;;13.40;35.60;;;;;;10369557;28;20231;-72
2023/03/29 10:08:45;;;;;;;1.97;1.63;;;13.50;35.30;;;;;;10357549;28;20221;-72
2023/03/29 10:13:53;;;;;;;2.43;1.70;;;13.70;34.90;;;;;;10360527;28;20226;-72
2023/03/29 10:18:56;;;;;;;3.03;1.47;;;13.80;34.90;;;;;;10366503;28;20350;-72
2023/03/29 10:24:01;;;;;;;1.40;1.30;;;13.90;35.10;;;;;;10358770;28;20230;-72
2023/03/29 10:29:07;;;;;;;2.43;1.53;;;14.00;34.70;;;;;;10370973;28;20237;-72
2023/03/29 10:34:14;;;;;;;2.37;1.57;;;14.10;34.50;;;;;;10366334;28;20586;-72
2023/03/29 10:39:18;;;;;;;2.10;1.90;;;14.30;34.50;;;;;;10367409;28;20233;-72
2023/03/29 10:44:27;;;;;;;1.60;1.50;;;14.40;34.30;;;;;;10370330;28;20244;-72
2023/03/29 10:49:40;;;;;;;1.70;1.60;;;14.50;34.10;;;;;;10368132;28;20581;-72
2023/03/29 10:54:46;;;;;;;1.60;1.50;;;14.70;33.50;;;;;;10368206;28;20835;-72
2023/03/29 10:59:57;;;;;;;3.27;1.73;;;14.80;33.60;;;;;;10368579;28;20230;-72
2023/03/29 11:05:20;;;;;;;1.60;1.50;;;14.90;32.60;;;;;;10363495;28;20316;-72
2023/03/29 11:10:36;;;;;;;3.23;1.40;;;15.00;33.30;;;;;;10368959;28;20621;-72
2023/03/29 11:15:49;;;;;;;4.50;1.87;;;15.10;32.30;;;;;;10371175;28;20556;-70
2023/03/29 11:21:01;;;;;;;1.57;1.47;;;15.20;32.40;;;;;;10371646;28;20565;-72
2023/03/29 11:26:12;;;;;;;2.27;1.60;;;15.30;32.40;;;;;;10369172;28;20237;-71
2023/03/29 11:31:28;;;;;;;1.80;1.60;;;15.50;32.50;;;;;;10372420;28;20953;-70
2023/03/29 11:36:40;;;;;;;3.07;1.53;;;15.70;32.70;;;;;;10368594;28;20309;-73
2023/03/29 11:41:48;;;;;;;1.50;1.40;;;15.90;33.00;;;;;;10364344;28;20240;-72
2023/03/29 11:46:58;;;;;;;4.90;4.40;;;16.00;31.70;;;;;;10367388;28;20230;-72
2023/03/29 11:52:05;;;;;;;2.10;1.90;;;16.00;30.90;;;;;;10367313;28;20234;-73
2023/03/29 11:57:18;;;;;;;2.70;1.57;;;16.00;31.10;;;;;;10371671;28;20233;-73
2023/03/29 12:02:29;;;;;;;2.37;1.73;;;16.00;29.40;;;;;;10368981;28;20233;-71
2023/03/29 12:07:37;;;;;;;3.03;1.30;;;16.00;30.50;;;;;;10371457;28;20247;-71
2023/03/29 12:12:46;;;;;;;1.53;1.30;;;16.10;30.90;;;;;;10365108;28;20679;-71
2023/03/29 12:17:58;;;;;;;1.67;1.57;;;16.10;30.00;;;;;;10364809;28;20725;-71
2023/03/29 12:23:02;;;;;;;1.83;1.47;;;16.20;30.00;;;;;;10365826;28;20725;-71
2023/03/29 12:28:47;;;;;;;2.30;1.77;;;16.20;31.30;;;;;;10365883;28;21010;-71
2023/03/29 12:34:08;;;;;;;10.07;2.90;;;16.30;29.20;;;;;;10364494;28;20316;-71
2023/03/29 12:39:14;;;;;;;5.80;1.63;;;16.30;29.20;;;;;;10364086;28;20235;-71
2023/03/29 12:44:23;;;;;;;2.30;1.67;;;16.40;30.30;;;;;;10368459;28;20226;-71
2023/03/29 12:49:37;;;;;;;1.80;1.70;;;16.40;29.80;;;;;;10373599;28;20241;-71
2023/03/29 12:54:52;;;;;;;2.10;1.70;;;16.50;29.70;;;;;;10358796;28;20276;-71
2023/03/29 13:00:07;;;;;;;12.83;2.83;;;16.50;29.90;;;;;;10368698;28;20222;-71
2023/03/29 13:05:29;;;;;;;6.97;2.10;;;16.50;29.90;;;;;;10376058;28;20276;-71
2023/03/29 13:10:39;;;;;;;2.23;1.50;;;16.40;28.10;;;;;;10374834;28;20236;-71
2023/03/29 13:15:45;;;;;;;2.67;1.77;;;16.40;29.70;;;;;;10346868;23;20282;-71
2023/03/29 13:21:01;;;;;;;2.53;1.70;;;16.40;29.70;;;;;;10258958;28;20224;-70
2023/03/29 13:26:29;;;;;;;2.13;1.80;;;16.50;29.50;;;;;;10259452;28;20243;-70
2023/03/29 13:31:39;;;;;;;2.23;1.60;;;16.60;29.60;;;;;;10247688;28;20235;-70
2023/03/29 13:36:54;;;;;;;2.23;1.57;;;16.70;29.80;;;;;;10264918;28;20231;-71
2023/03/29 13:42:08;;;;;;;2.53;2.00;;;16.80;29.50;;;;;;10272063;28;20719;-71
2023/03/29 13:47:35;;;;;;;2.70;1.97;;;16.90;29.20;;;;;;10264735;28;20234;-71
2023/03/29 13:52:43;;;;;;;1.93;1.73;;;17.00;29.10;;;;;;10266552;28;20651;-71
2023/03/29 13:57:53;;;;;;;2.37;1.40;;;17.00;29.40;;;;;;10252373;28;20284;-71
2023/03/29 14:03:00;;;;;;;2.13;1.70;;;17.10;29.50;;;;;;10260159;28;20231;-70
2023/03/29 14:08:08;;;;;;;1.90;1.70;;;17.20;29.70;;;;;;10272768;28;20243;-70
2023/03/29 14:13:13;;;;;;;4.73;1.60;;;17.20;28.90;;;;;;10261482;28;20306;-70
2023/03/29 14:18:22;;;;;;;1.73;1.63;;;17.20;29.70;;;;;;10245171;28;20237;-70
2023/03/29 14:23:29;;;;;;;1.83;1.70;;;17.20;29.20;;;;;;10254458;28;20232;-70
2023/03/29 14:28:33;;;;;;;1.70;1.60;;;17.20;29.20;;;;;;10258938;28;20635;-70
2023/03/29 14:33:37;;;;;;;2.20;1.97;;;17.20;29.30;;;;;;10252582;28;20236;-70
2023/03/29 14:38:41;;;;;;;2.50;1.70;;;17.20;29.30;;;;;;10260866;28;20299;-70
2023/03/29 14:43:46;;;;;;;2.10;1.63;;;17.10;29.70;;;;;;10272373;28;20243;-70
2023/03/29 14:48:51;;;;;;;2.83;2.07;;;17.10;29.60;;;;;;10264140;28;20219;-70
2023/03/29 14:53:54;;;;;;;2.00;1.80;;;17.20;29.40;;;;;;10240532;28;20224;-70
2023/03/29 14:59:03;;;;;;;2.73;2.47;;;17.20;29.50;;;;;;10267447;28;20242;-70
2023/03/29 15:04:09;;;;;;;4.07;2.97;;;17.30;29.70;;;;;;10280161;28;20317;-70
2023/03/29 15:09:17;;;;;;;2.80;2.20;;;17.40;29.30;;;;;;10285663;28;20671;-70
2023/03/29 15:14:22;;;;;;;2.87;1.93;;;17.40;29.50;;;;;;10251219;28;20262;-70
2023/03/29 15:19:27;;;;;;;3.33;2.17;;;17.50;29.50;;;;;;10253067;28;20813;-74
2023/03/29 15:24:32;;;;;;;1.70;1.60;;;17.60;29.30;;;;;;10259035;28;20232;-72
2023/03/29 15:29:40;;;;;;;1.93;1.30;;;17.60;29.70;;;;;;10277436;23;20235;-67
2023/03/29 15:34:45;;;;;;;1.70;1.60;;;17.70;30.00;;;;;;10246068;28;20252;-74
2023/03/29 15:39:48;;;;;;;3.40;1.90;;;17.80;29.30;;;;;;10227119;28;20243;-71
2023/03/29 15:44:55;;;;;;;3.93;1.70;;;17.80;29.40;;;;;;10225585;28;20235;-71
2023/03/29 15:50:01;;;;;;;2.70;1.50;;;18.00;29.00;;;;;;10226869;28;20235;-67
2023/03/29 15:55:05;;;;;;;1.60;1.50;;;18.00;28.90;;;;;;10225904;28;20240;-68
2023/03/29 16:00:14;;;;;;;2.27;1.77;;;18.00;28.90;;;;;;10228211;28;20720;-71
2023/03/29 16:05:18;;;;;;;2.23;1.60;;;18.00;28.00;;;;;;10222662;28;20228;-71
2023/03/29 16:10:22;;;;;;;2.33;1.93;;;18.00;28.40;;;;;;10227214;28;20236;-74
2023/03/29 16:15:26;;;;;;;6.00;4.30;;;18.00;28.80;;;;;;10229266;28;20239;-73
2023/03/29 16:20:31;;;;;;;2.77;2.30;;;17.90;28.70;;;;;;10224188;28;20231;-72
2023/03/29 16:25:35;;;;;;;3.23;2.57;;;18.00;28.60;;;;;;10226166;28;20804;-71
2023/03/29 16:30:43;;;;;;;2.83;1.80;;;18.00;28.80;;;;;;10230659;28;20224;-70
2023/03/29 16:35:48;;;;;;;2.50;2.10;;;18.00;28.20;;;;;;10235348;28;20240;-73
2023/03/29 16:40:52;;;;;;;2.17;2.00;;;17.90;28.80;;;;;;10237780;28;20238;-74
2023/03/29 16:45:55;;;;;;;4.17;2.83;;;17.90;28.80;;;;;;10228952;28;20251;-69
2023/03/29 16:51:01;;;;;;;3.30;2.13;;;17.80;28.60;;;;;;10231246;28;20762;-68
2023/03/29 16:56:04;;;;;;;4.87;3.77;;;17.80;28.40;;;;;;10231662;28;20240;-69
2023/03/29 17:01:09;;;;;;;2.90;2.00;;;17.70;28.60;;;;;;10232373;28;20389;-69
2023/03/29 17:06:14;;;;;;;2.83;1.87;;;17.60;28.60;;;;;;10227785;28;20232;-72
2023/03/29 17:11:21;;;;;;;2.93;2.03;;;17.60;28.60;;;;;;10229712;28;20236;-71
2023/03/29 17:16:27;;;;;;;1.87;1.60;;;17.50;28.80;;;;;;10229200;28;20243;-69
2023/03/29 17:21:32;;;;;;;2.60;1.87;;;17.40;28.80;;;;;;10231627;28;20324;-69
2023/03/29 17:26:36;;;;;;;4.33;2.93;;;17.40;28.90;;;;;;10230862;28;20251;-69
2023/03/29 17:31:45;;;;;;;4.00;3.27;;;17.40;29.00;;;;;;10235252;28;20235;-73
2023/03/29 17:36:52;;;;;;;3.93;3.00;;;17.40;28.90;;;;;;10229632;28;20248;-74
2023/03/29 17:41:55;;;;;;;4.03;3.40;;;17.30;28.80;;;;;;10233492;28;20221;-74
2023/03/29 17:46:59;;;;;;;3.80;3.40;;;17.30;29.00;;;;;;10228160;28;20244;-74
2023/03/29 17:52:04;;;;;;;2.93;2.40;;;17.20;29.00;;;;;;10219270;28;20239;-69
2023/03/29 17:57:07;;;;;;;2.83;2.20;;;17.10;29.10;;;;;;10219779;28;20492;-69
2023/03/29 18:02:16;;;;;;;2.03;1.70;;;17.00;29.30;;;;;;10226654;28;20263;-69
2023/03/29 18:07:20;;;;;;;2.07;1.87;;;16.90;29.30;;;;;;10224484;28;20243;-69
2023/03/29 18:12:24;;;;;;;1.90;1.80;;;16.90;29.40;;;;;;10227272;28;21163;-73
2023/03/29 18:17:28;;;;;;;2.73;2.17;;;16.90;29.40;;;;;;10226119;28;20244;-73
2023/03/29 18:22:32;;;;;;;4.20;2.13;;;16.90;29.50;;;;;;10230943;28;20233;-73
2023/03/29 18:27:36;;;;;;;5.73;2.80;;;16.80;29.50;;;;;;10228514;28;20237;-73
2023/03/29 18:32:39;;;;;;;6.30;5.17;;;16.80;29.60;;;;;;10229322;28;20228;-73
2023/03/29 18:37:44;;;;;;;4.10;3.70;;;16.70;29.70;;;;;;10222364;28;20769;-74
2023/03/29 18:42:47;;;;;;;4.00;3.60;;;16.70;29.90;;;;;;10218859;28;20225;-73
2023/03/29 18:47:51;;;;;;;3.30;2.70;;;16.70;30.00;;;;;;10215700;28;20221;-74
2023/03/29 18:52:56;;;;;;;3.57;2.40;;;16.60;30.30;;;;;;10214276;28;20224;-73
2023/03/29 18:57:59;;;;;;;2.47;2.13;;;16.60;31.10;;;;;;10219374;28;20228;-74
2023/03/29 19:03:02;;;;;;;3.53;2.57;;;16.60;30.80;;;;;;10232899;28;20763;-73
2023/03/29 19:08:07;;;;;;;7.53;6.30;;;16.60;31.20;;;;;;10231389;28;20228;-74
2023/03/29 19:13:11;;;;;;;9.07;7.30;;;16.60;31.80;;;;;;10226616;28;20339;-69
2023/03/29 19:18:14;;;;;;;7.07;5.60;;;16.50;31.20;;;;;;10226270;28;20236;-73
2023/03/29 19:23:20;;;;;;;4.17;3.73;;;16.40;31.10;;;;;;10222329;28;20331;-69
2023/03/29 19:28:23;;;;;;;6.83;4.60;;;16.30;31.50;;;;;;10223860;28;20240;-69
2023/03/29 19:33:27;;;;;;;3.97;3.57;;;16.20;31.30;;;;;;10228858;28;20228;-70
2023/03/29 19:38:31;;;;;;;5.73;4.60;;;16.10;31.40;;;;;;10231670;28;20615;-74
2023/03/29 19:43:35;;;;;;;10.87;9.87;;;16.00;31.90;;;;;;10229620;28;20232;-73
2023/03/29 19:48:39;;;;;;;15.60;13.83;;;15.90;31.80;;;;;;10231213;28;20224;-72
2023/03/29 19:53:44;;;;;;;9.00;8.10;;;15.80;31.70;;;;;;10230659;28;20224;-72
2023/03/29 19:58:48;;;;;;;7.17;6.47;;;15.70;31.90;;;;;;10226757;28;20239;-73
2023/03/29 20:03:51;;;;;;;10.97;7.67;;;15.60;31.70;;;;;;10226921;28;20232;-73
2023/03/29 20:08:56;;;;;;;14.60;10.17;;;15.60;31.80;;;;;;10223218;28;20294;-71
2023/03/29 20:13:59;;;;;;;8.90;6.27;;;15.50;32.00;;;;;;10222990;28;20858;-71
2023/03/29 20:19:03;;;;;;;6.83;3.87;;;15.40;31.80;;;;;;10223466;28;20232;-69
2023/03/29 20:24:08;;;;;;;5.37;3.93;;;15.30;32.30;;;;;;10225868;28;20612;-69
2023/03/29 20:29:14;;;;;;;5.33;2.70;;;15.10;32.20;;;;;;10230904;28;20224;-71
2023/03/29 20:34:17;;;;;;;4.53;2.83;;;15.10;32.20;;;;;;10226079;28;20586;-71
2023/03/29 20:39:22;;;;;;;4.57;3.23;;;15.00;32.10;;;;;;10228138;28;20339;-69
2023/03/29 20:44:28;;;;;;;3.27;2.83;;;14.90;32.80;;;;;;10223486;28;20751;-70
2023/03/29 20:49:35;;;;;;;3.63;2.80;;;14.80;32.60;;;;;;10224406;28;20233;-71
2023/03/29 20:54:40;;;;;;;4.00;2.60;;;14.80;32.80;;;;;;10224889;28;20878;-71
2023/03/29 20:59:45;;;;;;;5.50;3.23;;;14.70;33.10;;;;;;10211866;28;20232;-71
2023/03/29 21:04:53;;;;;;;3.47;2.67;;;14.70;33.00;;;;;;10197611;28;20476;-73
2023/03/29 21:09:59;;;;;;;3.30;2.53;;;14.60;33.70;;;;;;10223600;28;20228;-73
2023/03/29 21:15:04;;;;;;;3.57;3.03;;;14.70;33.30;;;;;;10235448;28;20613;-69
2023/03/29 21:20:09;;;;;;;3.37;3.00;;;14.80;33.20;;;;;;10234595;28;20247;-71
2023/03/29 21:25:14;;;;;;;3.10;2.50;;;14.80;33.50;;;;;;10232259;28;20271;-71
2023/03/29 21:30:17;;;;;;;3.17;2.70;;;14.80;33.70;;;;;;10234831;28;20307;-71
2023/03/29 21:35:21;;;;;;;3.10;2.80;;;14.90;33.60;;;;;;10235942;28;20867;-69
2023/03/29 21:40:25;;;;;;;3.23;2.30;;;14.90;33.60;;;;;;10262128;23;20248;-71
2023/03/29 21:45:28;;;;;;;2.70;1.93;;;14.90;33.80;;;;;;10268261;28;20238;-71
2023/03/29 21:50:33;;;;;;;3.57;2.97;;;14.90;33.60;;;;;;10251840;28;20236;-70
2023/03/29 21:55:37;;;;;;;3.43;3.03;;;15.00;33.80;;;;;;10237721;28;20228;-70
2023/03/29 22:00:41;;;;;;;3.00;2.70;;;15.00;34.20;;;;;;10230069;28;20763;-70
2023/03/29 22:05:55;;;;;;;3.77;2.80;;;15.00;33.80;;;;;;10238323;28;20315;-70
2023/03/29 22:11:07;;;;;;;4.33;2.93;;;15.00;34.40;;;;;;10236502;28;20228;-70
2023/03/29 22:16:15;;;;;;;6.67;3.50;;;14.90;34.40;;;;;;10233784;28;20275;-71
2023/03/29 22:21:22;;;;;;;3.30;2.80;;;14.90;33.80;;;;;;10237377;28;20336;-70
2023/03/29 22:26:28;;;;;;;4.27;3.40;;;14.80;33.90;;;;;;10236159;28;20243;-70
2023/03/29 22:31:31;;;;;;;3.40;3.03;;;14.70;34.40;;;;;;10236675;28;20228;-70
2023/03/29 22:36:36;;;;;;;3.80;2.90;;;14.60;33.80;;;;;;10238903;28;20874;-70
2023/03/29 22:41:41;;;;;;;6.23;3.40;;;14.60;34.20;;;;;;10243138;28;20315;-70
2023/03/29 22:46:44;;;;;;;4.57;3.10;;;14.50;34.40;;;;;;10240064;28;20243;-70
2023/03/29 22:51:47;;;;;;;4.60;3.03;;;14.50;34.20;;;;;;10232145;28;20231;-70
2023/03/29 22:56:52;;;;;;;5.23;3.30;;;14.40;34.30;;;;;;10237168;28;20231;-71
2023/03/29 23:01:55;;;;;;;4.73;2.93;;;14.40;34.80;;;;;;10235709;28;20228;-70
2023/03/29 23:06:59;;;;;;;6.43;3.57;;;14.40;34.50;;;;;;10234802;28;20232;-71
2023/03/29 23:12:03;;;;;;;4.30;3.03;;;14.40;34.50;;;;;;10236453;28;20220;-70
2023/03/29 23:17:08;;;;;;;4.73;3.03;;;14.30;34.90;;;;;;10239499;28;20237;-71
2023/03/29 23:22:12;;;;;;;4.87;3.10;;;14.30;34.60;;;;;;10230556;28;20794;-70
2023/03/29 23:27:17;;;;;;;4.47;3.17;;;14.20;34.60;;;;;;10233650;28;20243;-71
2023/03/29 23:32:20;;;;;;;4.23;3.10;;;14.20;35.10;;;;;;10230794;28;20232;-70
2023/03/29 23:37:23;;;;;;;6.40;2.87;;;14.10;34.90;;;;;;10235892;28;20727;-71
2023/03/29 23:42:29;;;;;;;4.00;2.87;;;14.00;35.00;;;;;;10234423;28;20242;-70
2023/03/29 23:47:33;;;;;;;5.17;2.93;;;14.00;35.80;;;;;;10238817;28;20649;-70
2023/03/29 23:52:36;;;;;;;6.20;3.00;;;14.00;35.20;;;;;;10235945;28;20259;-70
2023/03/29 23:57:42;;;;;;;3.50;2.73;;;14.00;35.30;;;;;;10233455;28;20242;-70
